sensor_id;sensor_type;location;lat;lon;timestamp;temperature;humidity
38263;DHT22;24054;50.128;19.730;2022-12-07T00:01:28;21.00;57.20
38263;DHT22;24054;50.128;19.730;2022-12-07T00:03:57;21.00;57.20
38263;DHT22;24054;50.128;19.730;2022-12-07T00:06:30;21.00;57.10
38263;DHT22;24054;50.128;19.730;2022-12-07T00:08:58;21.00;57.10
38263;DHT22;24054;50.128;19.730;2022-12-07T00:11:26;21.00;57.10
38263;DHT22;24054;50.128;19.730;2022-12-07T00:13:54;21.00;57.10
38263;DHT22;24054;50.128;19.730;2022-12-07T00:16:24;21.00;57.10
38263;DHT22;24054;50.128;19.730;2022-12-07T00:18:52;21.00;57.10
38263;DHT22;24054;50.128;19.730;2022-12-07T00:21:21;21.00;57.10
38263;DHT22;24054;50.128;19.730;2022-12-07T00:23:49;21.00;57.00
38263;DHT22;24054;50.128;19.730;2022-12-07T00:26:18;21.00;57.00
38263;DHT22;24054;50.128;19.730;2022-12-07T00:28:46;21.00;57.00
38263;DHT22;24054;50.128;19.730;2022-12-07T00:31:14;20.90;56.90
38263;DHT22;24054;50.128;19.730;2022-12-07T00:33:43;20.90;56.90
38263;DHT22;24054;50.128;19.730;2022-12-07T00:36:12;20.90;56.90
38263;DHT22;24054;50.128;19.730;2022-12-07T00:38:40;20.90;56.90
38263;DHT22;24054;50.128;19.730;2022-12-07T00:41:10;20.90;56.90
38263;DHT22;24054;50.128;19.730;2022-12-07T00:43:38;20.90;56.90
38263;DHT22;24054;50.128;19.730;2022-12-07T00:46:08;20.90;56.80
38263;DHT22;24054;50.128;19.730;2022-12-07T00:48:35;20.90;57.40
38263;DHT22;24054;50.128;19.730;2022-12-07T00:51:04;20.90;56.80
38263;DHT22;24054;50.128;19.730;2022-12-07T00:53:34;20.90;56.80
38263;DHT22;24054;50.128;19.730;2022-12-07T00:56:05;21.00;56.80
38263;DHT22;24054;50.128;19.730;2022-12-07T00:58:32;20.90;56.70
38263;DHT22;24054;50.128;19.730;2022-12-07T01:01:00;20.80;56.60
38263;DHT22;24054;50.128;19.730;2022-12-07T01:03:28;20.80;56.50
38263;DHT22;24054;50.128;19.730;2022-12-07T01:05:55;20.80;56.50
38263;DHT22;24054;50.128;19.730;2022-12-07T01:08:25;20.80;56.50
38263;DHT22;24054;50.128;19.730;2022-12-07T01:10:58;20.80;56.50
38263;DHT22;24054;50.128;19.730;2022-12-07T01:13:25;20.80;56.50
38263;DHT22;24054;50.128;19.730;2022-12-07T01:15:57;20.80;56.40
38263;DHT22;24054;50.128;19.730;2022-12-07T01:18:25;20.80;56.40
38263;DHT22;24054;50.128;19.730;2022-12-07T01:20:59;20.80;56.40
38263;DHT22;24054;50.128;19.730;2022-12-07T01:23:28;20.80;56.40
38263;DHT22;24054;50.128;19.730;2022-12-07T01:25:56;20.80;56.40
38263;DHT22;24054;50.128;19.730;2022-12-07T01:28:23;20.80;56.40
38263;DHT22;24054;50.128;19.730;2022-12-07T01:31:03;20.80;56.30
38263;DHT22;24054;50.128;19.730;2022-12-07T01:33:32;20.80;56.30
38263;DHT22;24054;50.128;19.730;2022-12-07T01:36:04;20.80;56.30
38263;DHT22;24054;50.128;19.730;2022-12-07T01:38:33;20.70;56.20
38263;DHT22;24054;50.128;19.730;2022-12-07T01:41:01;20.80;56.20
38263;DHT22;24054;50.128;19.730;2022-12-07T01:43:30;20.80;56.20
38263;DHT22;24054;50.128;19.730;2022-12-07T01:45:58;20.70;56.20
38263;DHT22;24054;50.128;19.730;2022-12-07T01:48:29;20.70;56.10
38263;DHT22;24054;50.128;19.730;2022-12-07T01:51:00;20.70;56.10
38263;DHT22;24054;50.128;19.730;2022-12-07T01:53:29;20.70;56.20
38263;DHT22;24054;50.128;19.730;2022-12-07T01:55:59;20.70;56.10
38263;DHT22;24054;50.128;19.730;2022-12-07T01:58:26;20.70;56.10
38263;DHT22;24054;50.128;19.730;2022-12-07T02:00:53;20.70;56.10
38263;DHT22;24054;50.128;19.730;2022-12-07T02:03:25;20.70;56.00
38263;DHT22;24054;50.128;19.730;2022-12-07T02:05:54;20.70;56.00
38263;DHT22;24054;50.128;19.730;2022-12-07T02:08:22;20.70;56.00
38263;DHT22;24054;50.128;19.730;2022-12-07T02:10:49;20.70;56.00
38263;DHT22;24054;50.128;19.730;2022-12-07T02:13:19;20.70;56.00
38263;DHT22;24054;50.128;19.730;2022-12-07T02:16:14;20.70;55.90
38263;DHT22;24054;50.128;19.730;2022-12-07T02:18:52;20.60;55.90
38263;DHT22;24054;50.128;19.730;2022-12-07T02:21:27;20.60;55.80
38263;DHT22;24054;50.128;19.730;2022-12-07T02:24:23;20.60;55.90
38263;DHT22;24054;50.128;19.730;2022-12-07T02:27:17;20.60;55.80
38263;DHT22;24054;50.128;19.730;2022-12-07T02:29:50;20.60;55.80
38263;DHT22;24054;50.128;19.730;2022-12-07T02:32:23;20.60;55.80
38263;DHT22;24054;50.128;19.730;2022-12-07T02:34:55;20.60;55.80
38263;DHT22;24054;50.128;19.730;2022-12-07T02:37:37;20.60;55.80
38263;DHT22;24054;50.128;19.730;2022-12-07T02:40:11;20.60;55.80
38263;DHT22;24054;50.128;19.730;2022-12-07T02:42:43;20.60;55.80
38263;DHT22;24054;50.128;19.730;2022-12-07T02:45:15;20.60;55.80
38263;DHT22;24054;50.128;19.730;2022-12-07T02:47:43;20.60;55.70
38263;DHT22;24054;50.128;19.730;2022-12-07T02:50:11;20.50;55.70
38263;DHT22;24054;50.128;19.730;2022-12-07T02:52:38;20.50;55.60
38263;DHT22;24054;50.128;19.730;2022-12-07T02:55:06;20.50;55.60
38263;DHT22;24054;50.128;19.730;2022-12-07T02:57:46;20.50;55.60
38263;DHT22;24054;50.128;19.730;2022-12-07T03:00:18;20.50;56.20
38263;DHT22;24054;50.128;19.730;2022-12-07T03:02:52;20.50;55.50
38263;DHT22;24054;50.128;19.730;2022-12-07T03:05:39;20.50;55.60
38263;DHT22;24054;50.128;19.730;2022-12-07T03:08:12;20.50;55.60
38263;DHT22;24054;50.128;19.730;2022-12-07T03:10:46;20.50;55.50
38263;DHT22;24054;50.128;19.730;2022-12-07T03:13:22;20.50;55.50
38263;DHT22;24054;50.128;19.730;2022-12-07T03:15:55;20.50;55.50
38263;DHT22;24054;50.128;19.730;2022-12-07T03:18:28;20.50;55.40
38263;DHT22;24054;50.128;19.730;2022-12-07T03:21:01;20.50;55.50
38263;DHT22;24054;50.128;19.730;2022-12-07T03:23:29;20.50;55.40
38263;DHT22;24054;50.128;19.730;2022-12-07T03:26:01;20.50;55.40
38263;DHT22;24054;50.128;19.730;2022-12-07T03:28:33;20.50;55.40
38263;DHT22;24054;50.128;19.730;2022-12-07T03:31:06;20.50;55.40
38263;DHT22;24054;50.128;19.730;2022-12-07T03:33:40;20.50;55.40
38263;DHT22;24054;50.128;19.730;2022-12-07T03:36:14;20.40;55.30
38263;DHT22;24054;50.128;19.730;2022-12-07T03:38:46;20.40;55.30
38263;DHT22;24054;50.128;19.730;2022-12-07T03:41:18;20.40;55.30
38263;DHT22;24054;50.128;19.730;2022-12-07T03:43:46;20.40;55.30
38263;DHT22;24054;50.128;19.730;2022-12-07T03:46:20;20.40;55.30
38263;DHT22;24054;50.128;19.730;2022-12-07T03:48:59;20.40;55.20
38263;DHT22;24054;50.128;19.730;2022-12-07T03:51:32;20.40;55.30
38263;DHT22;24054;50.128;19.730;2022-12-07T03:54:05;20.40;55.30
38263;DHT22;24054;50.128;19.730;2022-12-07T03:56:35;20.40;55.20
38263;DHT22;24054;50.128;19.730;2022-12-07T03:59:03;20.40;55.20
38263;DHT22;24054;50.128;19.730;2022-12-07T04:01:32;20.40;55.20
38263;DHT22;24054;50.128;19.730;2022-12-07T04:03:59;20.40;55.20
38263;DHT22;24054;50.128;19.730;2022-12-07T04:06:26;20.40;55.20
38263;DHT22;24054;50.128;19.730;2022-12-07T04:08:53;20.40;55.20
38263;DHT22;24054;50.128;19.730;2022-12-07T04:11:20;20.40;55.20
38263;DHT22;24054;50.128;19.730;2022-12-07T04:13:47;20.30;55.10
38263;DHT22;24054;50.128;19.730;2022-12-07T04:16:32;20.30;55.10
38263;DHT22;24054;50.128;19.730;2022-12-07T04:19:00;20.30;55.10
38263;DHT22;24054;50.128;19.730;2022-12-07T04:21:27;20.30;55.10
38263;DHT22;24054;50.128;19.730;2022-12-07T04:23:54;20.30;55.00
38263;DHT22;24054;50.128;19.730;2022-12-07T04:26:21;20.30;55.00
38263;DHT22;24054;50.128;19.730;2022-12-07T04:28:48;20.30;55.10
38263;DHT22;24054;50.128;19.730;2022-12-07T04:31:15;20.30;55.00
38263;DHT22;24054;50.128;19.730;2022-12-07T04:33:43;20.30;55.00
38263;DHT22;24054;50.128;19.730;2022-12-07T04:36:10;20.30;55.00
38263;DHT22;24054;50.128;19.730;2022-12-07T04:38:37;20.30;55.00
38263;DHT22;24054;50.128;19.730;2022-12-07T04:41:05;20.30;55.00
38263;DHT22;24054;50.128;19.730;2022-12-07T04:43:32;20.30;55.00
38263;DHT22;24054;50.128;19.730;2022-12-07T04:46:00;20.30;55.00
38263;DHT22;24054;50.128;19.730;2022-12-07T04:48:27;20.30;54.90
38263;DHT22;24054;50.128;19.730;2022-12-07T04:50:56;20.30;55.00
38263;DHT22;24054;50.128;19.730;2022-12-07T04:53:23;20.30;55.00
38263;DHT22;24054;50.128;19.730;2022-12-07T04:55:50;20.30;55.00
38263;DHT22;24054;50.128;19.730;2022-12-07T04:58:17;20.30;55.00
38263;DHT22;24054;50.128;19.730;2022-12-07T05:00:44;20.30;55.00
38263;DHT22;24054;50.128;19.730;2022-12-07T05:03:11;20.30;55.00
38263;DHT22;24054;50.128;19.730;2022-12-07T05:05:40;20.20;54.90
38263;DHT22;24054;50.128;19.730;2022-12-07T05:08:08;20.20;54.90
38263;DHT22;24054;50.128;19.730;2022-12-07T05:10:35;20.20;54.90
38263;DHT22;24054;50.128;19.730;2022-12-07T05:13:02;20.20;54.80
38263;DHT22;24054;50.128;19.730;2022-12-07T05:15:29;20.20;54.80
38263;DHT22;24054;50.128;19.730;2022-12-07T05:17:56;20.20;55.40
38263;DHT22;24054;50.128;19.730;2022-12-07T05:20:24;20.20;54.70
38263;DHT22;24054;50.128;19.730;2022-12-07T05:22:51;20.20;54.70
38263;DHT22;24054;50.128;19.730;2022-12-07T05:25:19;20.20;54.70
38263;DHT22;24054;50.128;19.730;2022-12-07T05:27:46;20.20;54.70
38263;DHT22;24054;50.128;19.730;2022-12-07T05:30:14;20.20;54.70
38263;DHT22;24054;50.128;19.730;2022-12-07T05:32:41;20.20;54.70
38263;DHT22;24054;50.128;19.730;2022-12-07T05:35:08;20.20;54.70
38263;DHT22;24054;50.128;19.730;2022-12-07T05:37:35;20.20;54.60
38263;DHT22;24054;50.128;19.730;2022-12-07T05:40:03;20.20;54.40
38263;DHT22;24054;50.128;19.730;2022-12-07T05:42:32;20.20;54.50
38263;DHT22;24054;50.128;19.730;2022-12-07T05:44:59;20.10;54.50
38263;DHT22;24054;50.128;19.730;2022-12-07T05:47:26;20.10;54.50
38263;DHT22;24054;50.128;19.730;2022-12-07T05:49:53;20.10;54.50
38263;DHT22;24054;50.128;19.730;2022-12-07T05:52:20;20.10;54.50
38263;DHT22;24054;50.128;19.730;2022-12-07T05:54:48;20.20;54.50
38263;DHT22;24054;50.128;19.730;2022-12-07T05:57:15;20.10;54.40
38263;DHT22;24054;50.128;19.730;2022-12-07T05:59:43;20.10;54.40
38263;DHT22;24054;50.128;19.730;2022-12-07T06:02:11;20.10;54.40
38263;DHT22;24054;50.128;19.730;2022-12-07T06:04:39;20.10;54.30
38263;DHT22;24054;50.128;19.730;2022-12-07T06:07:07;20.10;54.30
38263;DHT22;24054;50.128;19.730;2022-12-07T06:09:35;20.10;54.30
38263;DHT22;24054;50.128;19.730;2022-12-07T06:12:03;20.10;54.10
38263;DHT22;24054;50.128;19.730;2022-12-07T06:14:49;20.10;53.90
38263;DHT22;24054;50.128;19.730;2022-12-07T06:17:16;20.10;53.90
38263;DHT22;24054;50.128;19.730;2022-12-07T06:19:43;20.10;53.90
38263;DHT22;24054;50.128;19.730;2022-12-07T06:22:10;20.20;53.90
38263;DHT22;24054;50.128;19.730;2022-12-07T06:24:38;20.10;53.70
38263;DHT22;24054;50.128;19.730;2022-12-07T06:27:05;20.20;53.70
38263;DHT22;24054;50.128;19.730;2022-12-07T06:29:33;20.20;53.60
38263;DHT22;24054;50.128;19.730;2022-12-07T06:32:01;20.20;53.50
38263;DHT22;24054;50.128;19.730;2022-12-07T06:34:28;20.20;53.50
38263;DHT22;24054;50.128;19.730;2022-12-07T06:36:55;20.20;53.40
38263;DHT22;24054;50.128;19.730;2022-12-07T06:39:24;20.20;53.30
38263;DHT22;24054;50.128;19.730;2022-12-07T06:41:51;20.30;53.30
38263;DHT22;24054;50.128;19.730;2022-12-07T06:44:20;20.30;53.30
38263;DHT22;24054;50.128;19.730;2022-12-07T06:46:47;20.30;53.20
38263;DHT22;24054;50.128;19.730;2022-12-07T06:49:16;20.30;53.20
38263;DHT22;24054;50.128;19.730;2022-12-07T06:51:43;20.30;53.30
38263;DHT22;24054;50.128;19.730;2022-12-07T06:54:11;20.30;53.30
38263;DHT22;24054;50.128;19.730;2022-12-07T06:56:39;20.40;53.30
38263;DHT22;24054;50.128;19.730;2022-12-07T06:59:06;20.40;53.30
38263;DHT22;24054;50.128;19.730;2022-12-07T07:01:34;20.40;53.80
38263;DHT22;24054;50.128;19.730;2022-12-07T07:04:02;20.40;54.20
38263;DHT22;24054;50.128;19.730;2022-12-07T07:06:30;20.50;54.30
38263;DHT22;24054;50.128;19.730;2022-12-07T07:08:57;20.40;53.90
38263;DHT22;24054;50.128;19.730;2022-12-07T07:11:24;20.40;53.90
38263;DHT22;24054;50.128;19.730;2022-12-07T07:13:54;20.40;55.10
38263;DHT22;24054;50.128;19.730;2022-12-07T07:16:23;20.40;55.60
38263;DHT22;24054;50.128;19.730;2022-12-07T07:18:50;20.40;55.80
38263;DHT22;24054;50.128;19.730;2022-12-07T07:21:17;20.50;56.10
38263;DHT22;24054;50.128;19.730;2022-12-07T07:23:46;20.50;56.20
38263;DHT22;24054;50.128;19.730;2022-12-07T07:26:13;20.50;56.50
38263;DHT22;24054;50.128;19.730;2022-12-07T07:28:41;20.50;56.50
38263;DHT22;24054;50.128;19.730;2022-12-07T07:31:08;20.60;56.60
38263;DHT22;24054;50.128;19.730;2022-12-07T07:33:35;20.60;56.70
38263;DHT22;24054;50.128;19.730;2022-12-07T07:36:03;20.60;56.80
38263;DHT22;24054;50.128;19.730;2022-12-07T07:38:30;20.60;56.80
38263;DHT22;24054;50.128;19.730;2022-12-07T07:40:58;20.60;56.80
38263;DHT22;24054;50.128;19.730;2022-12-07T07:43:26;20.60;56.70
38263;DHT22;24054;50.128;19.730;2022-12-07T07:45:53;20.70;56.80
38263;DHT22;24054;50.128;19.730;2022-12-07T07:48:20;20.70;56.80
38263;DHT22;24054;50.128;19.730;2022-12-07T07:50:48;20.70;56.80
38263;DHT22;24054;50.128;19.730;2022-12-07T07:53:15;20.70;56.90
38263;DHT22;24054;50.128;19.730;2022-12-07T07:55:50;20.70;56.90
38263;DHT22;24054;50.128;19.730;2022-12-07T07:58:19;20.70;56.90
38263;DHT22;24054;50.128;19.730;2022-12-07T08:00:46;20.70;57.00
38263;DHT22;24054;50.128;19.730;2022-12-07T08:03:13;20.70;57.00
38263;DHT22;24054;50.128;19.730;2022-12-07T08:05:40;20.70;56.90
38263;DHT22;24054;50.128;19.730;2022-12-07T08:08:07;20.70;56.90
38263;DHT22;24054;50.128;19.730;2022-12-07T08:10:34;20.70;56.80
38263;DHT22;24054;50.128;19.730;2022-12-07T08:13:02;20.70;56.80
38263;DHT22;24054;50.128;19.730;2022-12-07T08:15:46;20.70;56.90
38263;DHT22;24054;50.128;19.730;2022-12-07T08:18:14;20.70;56.90
38263;DHT22;24054;50.128;19.730;2022-12-07T08:20:42;20.70;57.00
38263;DHT22;24054;50.128;19.730;2022-12-07T08:23:11;20.80;57.00
38263;DHT22;24054;50.128;19.730;2022-12-07T08:25:38;20.70;57.00
38263;DHT22;24054;50.128;19.730;2022-12-07T08:28:05;20.80;57.00
38263;DHT22;24054;50.128;19.730;2022-12-07T08:30:33;20.70;56.90
38263;DHT22;24054;50.128;19.730;2022-12-07T08:33:02;20.80;57.00
38263;DHT22;24054;50.128;19.730;2022-12-07T08:35:28;20.80;56.90
38263;DHT22;24054;50.128;19.730;2022-12-07T08:37:56;20.80;56.90
38263;DHT22;24054;50.128;19.730;2022-12-07T08:40:23;20.80;56.90
38263;DHT22;24054;50.128;19.730;2022-12-07T08:42:50;20.80;56.80
38263;DHT22;24054;50.128;19.730;2022-12-07T08:45:21;20.90;56.80
38263;DHT22;24054;50.128;19.730;2022-12-07T08:47:51;20.80;56.80
38263;DHT22;24054;50.128;19.730;2022-12-07T08:50:20;20.90;56.90
38263;DHT22;24054;50.128;19.730;2022-12-07T08:52:51;20.90;57.00
38263;DHT22;24054;50.128;19.730;2022-12-07T08:55:19;20.90;57.10
38263;DHT22;24054;50.128;19.730;2022-12-07T08:57:48;20.90;57.10
38263;DHT22;24054;50.128;19.730;2022-12-07T09:00:15;20.90;57.10
38263;DHT22;24054;50.128;19.730;2022-12-07T09:02:43;20.90;57.10
38263;DHT22;24054;50.128;19.730;2022-12-07T09:05:11;20.90;57.10
38263;DHT22;24054;50.128;19.730;2022-12-07T09:07:42;20.90;57.10
38263;DHT22;24054;50.128;19.730;2022-12-07T09:10:10;21.00;57.10
38263;DHT22;24054;50.128;19.730;2022-12-07T09:12:37;21.00;57.10
38263;DHT22;24054;50.128;19.730;2022-12-07T09:15:05;21.00;57.10
38263;DHT22;24054;50.128;19.730;2022-12-07T09:17:33;21.00;57.00
38263;DHT22;24054;50.128;19.730;2022-12-07T09:20:01;21.00;57.00
38263;DHT22;24054;50.128;19.730;2022-12-07T09:22:29;21.00;56.90
38263;DHT22;24054;50.128;19.730;2022-12-07T09:24:58;21.00;56.90
38263;DHT22;24054;50.128;19.730;2022-12-07T09:27:25;21.00;56.90
38263;DHT22;24054;50.128;19.730;2022-12-07T09:29:52;21.00;56.90
38263;DHT22;24054;50.128;19.730;2022-12-07T09:32:22;21.00;56.90
38263;DHT22;24054;50.128;19.730;2022-12-07T09:34:50;21.00;56.90
38263;DHT22;24054;50.128;19.730;2022-12-07T09:37:18;21.00;56.90
38263;DHT22;24054;50.128;19.730;2022-12-07T09:39:45;21.00;56.90
38263;DHT22;24054;50.128;19.730;2022-12-07T09:42:26;21.00;56.80
38263;DHT22;24054;50.128;19.730;2022-12-07T09:44:55;21.00;56.90
38263;DHT22;24054;50.128;19.730;2022-12-07T09:47:23;21.00;56.80
38263;DHT22;24054;50.128;19.730;2022-12-07T09:49:51;21.00;56.80
38263;DHT22;24054;50.128;19.730;2022-12-07T09:52:24;21.00;56.80
38263;DHT22;24054;50.128;19.730;2022-12-07T09:54:52;21.00;56.80
38263;DHT22;24054;50.128;19.730;2022-12-07T09:57:25;21.00;56.70
38263;DHT22;24054;50.128;19.730;2022-12-07T09:59:54;21.00;56.70
38263;DHT22;24054;50.128;19.730;2022-12-07T10:02:26;21.00;56.70
38263;DHT22;24054;50.128;19.730;2022-12-07T10:04:57;21.00;56.70
38263;DHT22;24054;50.128;19.730;2022-12-07T10:07:24;21.10;57.40
38263;DHT22;24054;50.128;19.730;2022-12-07T10:09:51;21.00;56.70
38263;DHT22;24054;50.128;19.730;2022-12-07T10:12:20;21.00;56.70
38263;DHT22;24054;50.128;19.730;2022-12-07T10:14:54;21.10;56.70
38263;DHT22;24054;50.128;19.730;2022-12-07T10:17:39;21.00;56.70
38263;DHT22;24054;50.128;19.730;2022-12-07T10:20:23;21.10;56.70
38263;DHT22;24054;50.128;19.730;2022-12-07T10:23:02;21.00;56.60
38263;DHT22;24054;50.128;19.730;2022-12-07T10:25:31;21.00;56.60
38263;DHT22;24054;50.128;19.730;2022-12-07T10:28:14;21.10;56.70
38263;DHT22;24054;50.128;19.730;2022-12-07T10:30:50;21.00;56.60
38263;DHT22;24054;50.128;19.730;2022-12-07T10:33:35;21.10;56.70
38263;DHT22;24054;50.128;19.730;2022-12-07T10:36:17;21.10;56.70
38263;DHT22;24054;50.128;19.730;2022-12-07T10:38:46;21.10;56.60
38263;DHT22;24054;50.128;19.730;2022-12-07T10:41:13;21.10;56.70
38263;DHT22;24054;50.128;19.730;2022-12-07T10:43:50;21.10;56.60
38263;DHT22;24054;50.128;19.730;2022-12-07T10:46:30;21.00;56.50
38263;DHT22;24054;50.128;19.730;2022-12-07T10:49:11;21.10;56.60
38263;DHT22;24054;50.128;19.730;2022-12-07T10:51:49;21.10;56.60
38263;DHT22;24054;50.128;19.730;2022-12-07T10:54:22;21.10;56.60
38263;DHT22;24054;50.128;19.730;2022-12-07T10:57:31;21.10;56.60
38263;DHT22;24054;50.128;19.730;2022-12-07T11:00:10;21.10;56.60
38263;DHT22;24054;50.128;19.730;2022-12-07T11:05:39;21.10;56.50
38263;DHT22;24054;50.128;19.730;2022-12-07T11:08:15;21.10;56.50
38263;DHT22;24054;50.128;19.730;2022-12-07T11:10:49;21.10;56.50
38263;DHT22;24054;50.128;19.730;2022-12-07T11:13:25;21.10;56.50
38263;DHT22;24054;50.128;19.730;2022-12-07T11:19:11;21.10;56.40
38263;DHT22;24054;50.128;19.730;2022-12-07T11:21:48;21.10;56.40
38263;DHT22;24054;50.128;19.730;2022-12-07T11:24:24;21.10;56.40
38263;DHT22;24054;50.128;19.730;2022-12-07T11:27:07;21.20;56.50
38263;DHT22;24054;50.128;19.730;2022-12-07T11:30:03;21.10;56.10
38263;DHT22;24054;50.128;19.730;2022-12-07T11:32:47;21.00;53.00
38263;DHT22;24054;50.128;19.730;2022-12-07T11:35:25;20.90;51.70
38263;DHT22;24054;50.128;19.730;2022-12-07T11:38:01;20.90;51.40
38263;DHT22;24054;50.128;19.730;2022-12-07T11:40:31;20.80;50.60
38263;DHT22;24054;50.128;19.730;2022-12-07T11:43:05;20.70;49.90
38263;DHT22;24054;50.128;19.730;2022-12-07T11:45:35;20.60;48.40
38263;DHT22;24054;50.128;19.730;2022-12-07T11:48:11;20.60;51.70
38263;DHT22;24054;50.128;19.730;2022-12-07T11:50:43;20.60;52.90
38263;DHT22;24054;50.128;19.730;2022-12-07T11:53:18;20.60;52.50
38263;DHT22;24054;50.128;19.730;2022-12-07T11:55:53;20.60;51.30
38263;DHT22;24054;50.128;19.730;2022-12-07T11:58:40;20.60;51.70
38263;DHT22;24054;50.128;19.730;2022-12-07T12:01:18;20.60;50.70
38263;DHT22;24054;50.128;19.730;2022-12-07T12:03:53;20.50;51.30
38263;DHT22;24054;50.128;19.730;2022-12-07T12:06:23;20.50;51.50
38263;DHT22;24054;50.128;19.730;2022-12-07T12:08:54;20.50;51.40
38263;DHT22;24054;50.128;19.730;2022-12-07T12:11:38;20.40;51.60
38263;DHT22;24054;50.128;19.730;2022-12-07T12:14:24;20.40;51.60
38263;DHT22;24054;50.128;19.730;2022-12-07T12:17:29;20.40;51.80
38263;DHT22;24054;50.128;19.730;2022-12-07T12:20:05;20.40;51.80
38263;DHT22;24054;50.128;19.730;2022-12-07T12:22:36;20.40;51.90
38263;DHT22;24054;50.128;19.730;2022-12-07T12:25:07;20.30;52.10
38263;DHT22;24054;50.128;19.730;2022-12-07T12:27:39;20.30;53.20
38263;DHT22;24054;50.128;19.730;2022-12-07T12:30:23;20.40;54.20
38263;DHT22;24054;50.128;19.730;2022-12-07T12:32:52;20.40;54.40
38263;DHT22;24054;50.128;19.730;2022-12-07T12:35:29;20.50;54.70
38263;DHT22;24054;50.128;19.730;2022-12-07T12:40:57;20.60;54.90
38263;DHT22;24054;50.128;19.730;2022-12-07T12:43:50;20.60;54.90
38263;DHT22;24054;50.128;19.730;2022-12-07T12:46:51;20.70;55.00
38263;DHT22;24054;50.128;19.730;2022-12-07T12:49:40;20.70;55.00
38263;DHT22;24054;50.128;19.730;2022-12-07T12:56:01;20.80;55.20
38263;DHT22;24054;50.128;19.730;2022-12-07T12:58:43;20.80;55.20
38263;DHT22;24054;50.128;19.730;2022-12-07T13:01:44;20.90;55.50
38263;DHT22;24054;50.128;19.730;2022-12-07T13:04:49;21.00;55.40
38263;DHT22;24054;50.128;19.730;2022-12-07T13:10:36;21.00;55.40
38263;DHT22;24054;50.128;19.730;2022-12-07T13:13:29;21.10;55.60
38263;DHT22;24054;50.128;19.730;2022-12-07T13:16:38;21.10;55.60
38263;DHT22;24054;50.128;19.730;2022-12-07T13:25:11;21.10;55.60
38263;DHT22;24054;50.128;19.730;2022-12-07T13:27:41;21.20;55.70
38263;DHT22;24054;50.128;19.730;2022-12-07T13:30:14;21.10;55.70
38263;DHT22;24054;50.128;19.730;2022-12-07T13:32:42;21.20;55.60
38263;DHT22;24054;50.128;19.730;2022-12-07T13:35:31;21.20;55.70
38263;DHT22;24054;50.128;19.730;2022-12-07T13:37:59;21.20;55.70
38263;DHT22;24054;50.128;19.730;2022-12-07T13:40:26;21.20;55.60
38263;DHT22;24054;50.128;19.730;2022-12-07T13:42:57;21.20;55.70
38263;DHT22;24054;50.128;19.730;2022-12-07T13:45:28;21.20;55.70
38263;DHT22;24054;50.128;19.730;2022-12-07T13:48:15;21.20;55.50
38263;DHT22;24054;50.128;19.730;2022-12-07T13:50:43;21.20;55.40
38263;DHT22;24054;50.128;19.730;2022-12-07T13:53:12;21.20;55.30
38263;DHT22;24054;50.128;19.730;2022-12-07T13:55:45;21.20;55.30
38263;DHT22;24054;50.128;19.730;2022-12-07T13:58:13;21.20;55.30
38263;DHT22;24054;50.128;19.730;2022-12-07T14:00:42;21.20;55.30
38263;DHT22;24054;50.128;19.730;2022-12-07T14:03:29;21.20;55.20
38263;DHT22;24054;50.128;19.730;2022-12-07T14:06:22;21.20;55.20
38263;DHT22;24054;50.128;19.730;2022-12-07T14:09:05;21.20;55.10
38263;DHT22;24054;50.128;19.730;2022-12-07T14:11:32;21.20;55.10
38263;DHT22;24054;50.128;19.730;2022-12-07T14:14:01;21.20;55.10
38263;DHT22;24054;50.128;19.730;2022-12-07T14:16:31;21.20;55.20
38263;DHT22;24054;50.128;19.730;2022-12-07T14:19:03;21.20;55.20
38263;DHT22;24054;50.128;19.730;2022-12-07T14:21:32;21.20;55.20
38263;DHT22;24054;50.128;19.730;2022-12-07T14:24:17;21.20;55.80
38263;DHT22;24054;50.128;19.730;2022-12-07T14:26:47;21.20;55.20
38263;DHT22;24054;50.128;19.730;2022-12-07T14:29:32;21.20;55.20
38263;DHT22;24054;50.128;19.730;2022-12-07T14:32:19;21.20;55.20
38263;DHT22;24054;50.128;19.730;2022-12-07T14:34:54;21.20;55.20
38263;DHT22;24054;50.128;19.730;2022-12-07T14:37:22;21.20;55.20
38263;DHT22;24054;50.128;19.730;2022-12-07T14:39:49;21.20;55.20
38263;DHT22;24054;50.128;19.730;2022-12-07T14:42:16;21.30;55.20
38263;DHT22;24054;50.128;19.730;2022-12-07T14:44:44;21.20;55.10
38263;DHT22;24054;50.128;19.730;2022-12-07T14:47:12;21.20;55.10
38263;DHT22;24054;50.128;19.730;2022-12-07T14:49:39;21.20;55.10
38263;DHT22;24054;50.128;19.730;2022-12-07T14:52:12;21.20;55.10
38263;DHT22;24054;50.128;19.730;2022-12-07T14:54:41;21.20;55.20
38263;DHT22;24054;50.128;19.730;2022-12-07T14:57:09;21.30;55.30
38263;DHT22;24054;50.128;19.730;2022-12-07T14:59:37;21.30;55.30
38263;DHT22;24054;50.128;19.730;2022-12-07T15:02:04;21.20;55.30
38263;DHT22;24054;50.128;19.730;2022-12-07T15:04:33;21.30;55.40
38263;DHT22;24054;50.128;19.730;2022-12-07T15:07:02;21.30;55.30
38263;DHT22;24054;50.128;19.730;2022-12-07T15:09:29;21.30;55.20
38263;DHT22;24054;50.128;19.730;2022-12-07T15:11:57;21.30;55.30
38263;DHT22;24054;50.128;19.730;2022-12-07T15:14:24;21.30;55.30
38263;DHT22;24054;50.128;19.730;2022-12-07T15:16:51;21.30;55.40
38263;DHT22;24054;50.128;19.730;2022-12-07T15:19:19;21.30;55.30
38263;DHT22;24054;50.128;19.730;2022-12-07T15:21:49;21.30;55.20
38263;DHT22;24054;50.128;19.730;2022-12-07T15:24:16;21.30;55.10
38263;DHT22;24054;50.128;19.730;2022-12-07T15:26:44;21.30;55.00
38263;DHT22;24054;50.128;19.730;2022-12-07T15:29:13;21.30;55.00
38263;DHT22;24054;50.128;19.730;2022-12-07T15:31:43;21.30;55.00
38263;DHT22;24054;50.128;19.730;2022-12-07T15:34:11;21.30;55.00
38263;DHT22;24054;50.128;19.730;2022-12-07T15:36:38;21.30;55.00
38263;DHT22;24054;50.128;19.730;2022-12-07T15:39:07;21.30;55.00
38263;DHT22;24054;50.128;19.730;2022-12-07T15:41:35;21.30;54.90
38263;DHT22;24054;50.128;19.730;2022-12-07T15:44:02;21.30;54.90
38263;DHT22;24054;50.128;19.730;2022-12-07T15:46:47;21.30;54.90
38263;DHT22;24054;50.128;19.730;2022-12-07T15:49:17;21.30;55.10
38263;DHT22;24054;50.128;19.730;2022-12-07T15:51:45;21.30;54.90
38263;DHT22;24054;50.128;19.730;2022-12-07T15:54:18;21.30;54.90
38263;DHT22;24054;50.128;19.730;2022-12-07T15:56:46;21.30;55.10
38263;DHT22;24054;50.128;19.730;2022-12-07T15:59:13;21.30;55.50
38263;DHT22;24054;50.128;19.730;2022-12-07T16:01:43;21.30;54.80
38263;DHT22;24054;50.128;19.730;2022-12-07T16:04:12;21.30;54.80